Time,TemperatureF,DewpointF,PressureIn,WindDirection,WindDirectionDegrees,WindSpeedMPH,WindSpeedGustMPH,Humidity,HourlyPrecipIn,Conditions,Clouds,dailyrainin,SoftwareType,DateUTC
2013-05-22 00:04:00,71.0,67.0,29.89,NW,322,0.0,0.0,86,-99.99,,,-99.99,,2013-05-22 04:04:00,
2013-05-22 00:13:00,71.0,67.0,29.89,NW,322,0.0,0.0,86,-99.99,,,-99.99,,2013-05-22 04:13:00,
2013-05-22 00:23:00,72.0,66.0,29.91,East,89,1.0,0.0,81,-99.99,,,-99.99,,2013-05-22 04:23:00,
2013-05-22 00:33:00,72.0,66.0,29.91,East,89,1.0,0.0,81,-99.99,,,-99.99,,2013-05-22 04:33:00,
2013-05-22 00:43:00,74.0,63.0,29.90,NNW,348,2.0,0.0,69,-99.99,,,-99.99,,2013-05-22 04:43:00,
2013-05-22 00:53:00,74.0,63.0,29.90,NNW,348,2.0,0.0,69,-99.99,,,-99.99,,2013-05-22 04:53:00,
2013-05-22 01:02:00,73.0,63.0,29.91,ENE,65,1.0,0.0,70,-99.99,,,-99.99,,2013-05-22 05:02:00,
2013-05-22 01:12:00,72.0,62.0,29.90,NE,50,2.0,0.0,71,-99.99,,,-99.99,,2013-05-22 05:12:00,
2013-05-22 01:21:00,72.0,62.0,29.90,NE,50,2.0,0.0,71,-99.99,,,-99.99,,2013-05-22 05:21:00,
2013-05-22 01:32:00,72.0,62.0,29.90,NE,47,2.0,0.0,72,-99.99,,,-99.99,,2013-05-22 05:32:00,
2013-05-22 01:42:00,71.0,62.0,29.89,East,89,1.0,0.0,73,-99.99,,,-99.99,,2013-05-22 05:42:00,
2013-05-22 01:52:00,71.0,62.0,29.89,East,89,1.0,0.0,73,-99.99,,,-99.99,,2013-05-22 05:52:00,
2013-05-22 02:01:00,70.0,61.0,29.88,ESE,115,1.0,0.0,73,-99.99,,,-99.99,,2013-05-22 06:01:00,
2013-05-22 02:12:00,70.0,61.0,29.88,ESE,115,1.0,0.0,73,-99.99,,,-99.99,,2013-05-22 06:12:00,
2013-05-22 02:21:00,70.0,61.0,29.88,ESE,115,1.0,0.0,73,-99.99,,,-99.99,,2013-05-22 06:21:00,
2013-05-22 02:32:00,70.0,61.0,29.87,ESE,118,0.0,0.0,73,-99.99,,,-99.99,,2013-05-22 06:32:00,
2013-05-22 02:42:00,69.0,61.0,29.86,ESE,121,0.0,0.0,75,-99.99,,,-99.99,,2013-05-22 06:42:00,
2013-05-22 02:52:00,69.0,61.0,29.86,ESE,121,0.0,0.0,75,-99.99,,,-99.99,,2013-05-22 06:52:00,
2013-05-22 03:01:00,69.0,61.0,29.86,ESE,121,0.0,0.0,75,-99.99,,,-99.99,,2013-05-22 07:01:00,
2013-05-22 03:11:00,69.0,61.0,29.86,ESE,121,0.0,0.0,75,-99.99,,,-99.99,,2013-05-22 07:11:00,
2013-05-22 03:21:00,68.0,61.0,29.87,NW,321,0.0,0.0,77,-99.99,,,-99.99,,2013-05-22 07:21:00,
2013-05-22 03:32:00,67.0,60.0,29.86,NW,321,0.0,0.0,79,-99.99,,,-99.99,,2013-05-22 07:32:00,
2013-05-22 03:42:00,67.0,60.0,29.86,NW,321,0.0,0.0,79,-99.99,,,-99.99,,2013-05-22 07:42:00,
2013-05-22 03:52:00,67.0,60.0,29.86,NW,321,0.0,0.0,79,-99.99,,,-99.99,,2013-05-22 07:52:00,
2013-05-22 04:02:00,67.0,60.0,29.86,NW,321,0.0,0.0,79,-99.99,,,-99.99,,2013-05-22 08:02:00,
2013-05-22 04:11:00,67.0,60.0,29.86,NW,321,0.0,0.0,79,-99.99,,,-99.99,,2013-05-22 08:11:00,
2013-05-22 04:22:00,65.0,60.0,29.85,NW,321,0.0,0.0,84,-99.99,,,-99.99,,2013-05-22 08:22:00,
2013-05-22 04:32:00,65.0,60.0,29.85,NW,321,0.0,0.0,84,-99.99,,,-99.99,,2013-05-22 08:32:00,
2013-05-22 04:42:00,65.0,60.0,29.85,NW,321,0.0,0.0,84,-99.99,,,-99.99,,2013-05-22 08:42:00,
2013-05-22 04:52:00,65.0,60.0,29.85,NW,321,0.0,0.0,84,-99.99,,,-99.99,,2013-05-22 08:52:00,
2013-05-22 05:01:00,63.0,60.0,29.86,NW,320,0.0,0.0,89,-99.99,,,-99.99,,2013-05-22 09:01:00,
2013-05-22 05:12:00,63.0,60.0,29.86,NW,320,0.0,0.0,89,-99.99,,,-99.99,,2013-05-22 09:12:00,
2013-05-22 05:22:00,62.0,59.0,29.86,NW,321,0.0,0.0,90,-99.99,,,-99.99,,2013-05-22 09:22:00,
2013-05-22 05:33:00,62.0,59.0,29.86,NW,321,0.0,0.0,90,-99.99,,,-99.99,,2013-05-22 09:33:00,
2013-05-22 05:42:00,62.0,59.0,29.86,NW,321,0.0,0.0,90,-99.99,,,-99.99,,2013-05-22 09:42:00,
2013-05-22 05:53:00,62.0,59.0,29.88,ENE,72,1.0,0.0,91,-99.99,,,-99.99,,2013-05-22 09:53:00,
2013-05-22 06:03:00,63.0,60.0,29.88,ENE,62,1.0,0.0,90,-99.99,,,-99.99,,2013-05-22 10:03:00,
2013-05-22 06:12:00,63.0,60.0,29.88,ENE,62,1.0,0.0,90,-99.99,,,-99.99,,2013-05-22 10:12:00,
2013-05-22 06:23:00,62.0,59.0,29.89,SSE,162,1.0,0.0,90,-99.99,,,-99.99,,2013-05-22 10:23:00,
2013-05-22 06:33:00,62.0,59.0,29.89,ESE,118,0.0,0.0,91,-99.99,,,-99.99,,2013-05-22 10:33:00,
2013-05-22 06:42:00,62.0,59.0,29.89,ESE,118,0.0,0.0,91,-99.99,,,-99.99,,2013-05-22 10:42:00,
2013-05-22 06:53:00,62.0,59.0,29.89,ESE,118,0.0,0.0,91,-99.99,,,-99.99,,2013-05-22 10:53:00,
2013-05-22 07:02:00,61.0,59.0,29.90,ESE,119,0.0,0.0,93,-99.99,,,-99.99,,2013-05-22 11:02:00,
2013-05-22 07:11:00,61.0,59.0,29.90,ESE,119,0.0,0.0,93,-99.99,,,-99.99,,2013-05-22 11:11:00,
2013-05-22 07:22:00,62.0,60.0,29.91,ESE,121,0.0,0.0,92,-99.99,,,-99.99,,2013-05-22 11:22:00,
2013-05-22 07:32:00,62.0,60.0,29.91,ESE,121,0.0,0.0,92,-99.99,,,-99.99,,2013-05-22 11:32:00,
2013-05-22 07:42:00,62.0,60.0,29.91,ESE,121,0.0,0.0,92,-99.99,,,-99.99,,2013-05-22 11:42:00,
2013-05-22 07:53:00,64.0,60.0,29.91,SE,125,0.0,0.0,88,-99.99,,,-99.99,,2013-05-22 11:53:00,
2013-05-22 08:02:00,64.0,60.0,29.91,SE,125,0.0,0.0,88,-99.99,,,-99.99,,2013-05-22 12:02:00,
2013-05-22 08:12:00,64.0,60.0,29.91,SE,125,0.0,0.0,88,-99.99,,,-99.99,,2013-05-22 12:12:00,
2013-05-22 08:22:00,66.0,61.0,29.91,SE,136,0.0,0.0,84,-99.99,,,-99.99,,2013-05-22 12:22:00,
2013-05-22 08:32:00,67.0,61.0,29.92,SE,134,1.0,0.0,82,-99.99,,,-99.99,,2013-05-22 12:32:00,
2013-05-22 08:42:00,67.0,61.0,29.92,SE,134,1.0,0.0,82,-99.99,,,-99.99,,2013-05-22 12:42:00,
2013-05-22 08:52:00,67.0,61.0,29.92,SE,134,1.0,0.0,82,-99.99,,,-99.99,,2013-05-22 12:52:00,
2013-05-22 09:02:00,70.0,63.0,29.92,NNW,328,3.0,0.0,78,-99.99,,,-99.99,,2013-05-22 13:02:00,
2013-05-22 09:12:00,70.0,63.0,29.92,NNW,328,3.0,0.0,78,-99.99,,,-99.99,,2013-05-22 13:12:00,
2013-05-22 09:22:00,71.0,64.0,29.92,ESE,121,1.0,0.0,78,-99.99,,,-99.99,,2013-05-22 13:22:00,
2013-05-22 09:32:00,71.0,63.0,29.91,NNW,334,0.0,0.0,77,-99.99,,,-99.99,,2013-05-22 13:32:00,
2013-05-22 09:42:00,71.0,63.0,29.91,NNW,334,0.0,0.0,77,-99.99,,,-99.99,,2013-05-22 13:42:00,
2013-05-22 09:52:00,72.0,64.0,29.91,ESE,110,1.0,0.0,77,-99.99,,,-99.99,,2013-05-22 13:52:00,
2013-05-22 10:02:00,72.0,64.0,29.91,ESE,110,1.0,0.0,77,-99.99,,,-99.99,,2013-05-22 14:02:00,
2013-05-22 10:11:00,72.0,64.0,29.91,ESE,110,1.0,0.0,77,-99.99,,,-99.99,,2013-05-22 14:11:00,
2013-05-22 10:22:00,73.0,64.0,29.92,NNE,30,0.0,0.0,74,-99.99,,,-99.99,,2013-05-22 14:22:00,
2013-05-22 10:32:00,73.0,64.0,29.92,NNE,30,0.0,0.0,74,-99.99,,,-99.99,,2013-05-22 14:32:00,
2013-05-22 10:42:00,73.0,64.0,29.92,NNE,30,0.0,0.0,74,-99.99,,,-99.99,,2013-05-22 14:42:00,
2013-05-22 10:52:00,76.0,66.0,29.91,South,181,0.0,0.0,72,-99.99,,,-99.99,,2013-05-22 14:52:00,
2013-05-22 11:01:00,76.0,65.0,29.91,NE,51,0.0,0.0,69,-99.99,,,-99.99,,2013-05-22 15:01:00,
2013-05-22 11:11:00,76.0,65.0,29.91,NE,51,0.0,0.0,69,-99.99,,,-99.99,,2013-05-22 15:11:00,
2013-05-22 11:22:00,77.0,66.0,29.91,NW,309,0.0,0.0,69,-99.99,,,-99.99,,2013-05-22 15:22:00,
2013-05-22 11:32:00,77.0,66.0,29.91,NW,309,0.0,0.0,69,-99.99,,,-99.99,,2013-05-22 15:32:00,
2013-05-22 11:42:00,77.0,66.0,29.91,NW,309,0.0,0.0,69,-99.99,,,-99.99,,2013-05-22 15:42:00,
2013-05-22 11:53:00,78.0,67.0,29.91,South,186,0.0,0.0,70,-99.99,,,-99.99,,2013-05-22 15:53:00,
2013-05-22 12:03:00,79.0,68.0,29.90,SSE,166,0.0,0.0,68,-99.99,,,-99.99,,2013-05-22 16:03:00,
2013-05-22 12:12:00,79.0,68.0,29.90,SSE,166,0.0,0.0,68,-99.99,,,-99.99,,2013-05-22 16:12:00,
2013-05-22 12:23:00,80.0,68.0,29.89,SW,214,0.0,0.0,67,-99.99,,,-99.99,,2013-05-22 16:23:00,
2013-05-22 12:33:00,80.0,68.0,29.89,SW,214,0.0,0.0,67,-99.99,,,-99.99,,2013-05-22 16:33:00,
2013-05-22 12:42:00,80.0,68.0,29.89,SW,214,0.0,0.0,67,-99.99,,,-99.99,,2013-05-22 16:42:00,
2013-05-22 12:52:00,83.0,70.0,29.88,SSW,208,1.0,0.0,66,-99.99,,,-99.99,,2013-05-22 16:52:00,
2013-05-22 13:02:00,83.0,70.0,29.88,SSW,208,1.0,0.0,66,-99.99,,,-99.99,,2013-05-22 17:02:00,
2013-05-22 13:12:00,81.0,71.0,29.86,South,181,0.0,0.0,71,-99.99,,,-99.99,,2013-05-22 17:12:00,
2013-05-22 13:23:00,81.0,71.0,29.86,South,181,0.0,0.0,71,-99.99,,,-99.99,,2013-05-22 17:23:00,
2013-05-22 13:33:00,81.0,71.0,29.86,South,181,0.0,0.0,71,-99.99,,,-99.99,,2013-05-22 17:33:00,
2013-05-22 13:42:00,81.0,71.0,29.86,South,181,0.0,0.0,71,-99.99,,,-99.99,,2013-05-22 17:42:00,
2013-05-22 13:54:00,79.0,72.0,29.86,South,176,1.0,0.0,79,-99.99,,,-99.99,,2013-05-22 17:54:00,
2013-05-22 14:02:00,78.0,73.0,29.85,NNE,33,0.0,0.0,86,-99.99,,,-99.99,,2013-05-22 18:02:00,
2013-05-22 14:14:00,78.0,73.0,29.85,NNE,33,0.0,0.0,86,-99.99,,,-99.99,,2013-05-22 18:14:00,
2013-05-22 14:22:00,78.0,73.0,29.85,NNE,33,0.0,0.0,86,-99.99,,,-99.99,,2013-05-22 18:22:00,
2013-05-22 14:34:00,78.0,73.0,29.85,NNE,33,0.0,0.0,86,-99.99,,,-99.99,,2013-05-22 18:34:00,
2013-05-22 14:42:00,78.0,73.0,29.85,NNE,33,0.0,0.0,86,-99.99,,,-99.99,,2013-05-22 18:42:00,
2013-05-22 14:52:00,84.0,73.0,29.84,NNE,23,0.0,0.0,70,-99.99,,,-99.99,,2013-05-22 18:52:00,
2013-05-22 15:02:00,85.0,73.0,29.83,East,94,1.0,0.0,68,-99.99,,,-99.99,,2013-05-22 19:02:00,
2013-05-22 15:11:00,85.0,73.0,29.83,East,94,1.0,0.0,68,-99.99,,,-99.99,,2013-05-22 19:11:00,
2013-05-22 15:22:00,86.0,72.0,29.82,East,82,0.0,0.0,63,-99.99,,,-99.99,,2013-05-22 19:22:00,
2013-05-22 15:32:00,86.0,72.0,29.82,East,82,0.0,0.0,63,-99.99,,,-99.99,,2013-05-22 19:32:00,
2013-05-22 15:42:00,84.0,71.0,29.82,NW,314,1.0,0.0,65,-99.99,,,-99.99,,2013-05-22 19:42:00,
2013-05-22 15:52:00,84.0,71.0,29.82,NW,314,1.0,0.0,65,-99.99,,,-99.99,,2013-05-22 19:52:00,
2013-05-22 16:02:00,84.0,71.0,29.82,NW,314,1.0,0.0,65,-99.99,,,-99.99,,2013-05-22 20:02:00,
2013-05-22 16:11:00,75.0,63.0,29.85,East,96,7.0,0.0,66,-99.99,,,-99.99,,2013-05-22 20:11:00,
2013-05-22 16:22:00,75.0,63.0,29.85,East,96,7.0,0.0,66,-99.99,,,-99.99,,2013-05-22 20:22:00,
2013-05-22 16:32:00,73.0,64.0,29.85,ENE,65,3.0,0.0,73,-99.99,,,-99.99,,2013-05-22 20:32:00,
2013-05-22 16:42:00,70.0,65.0,29.85,East,98,1.0,0.0,84,-99.99,,,-99.99,,2013-05-22 20:42:00,
2013-05-22 16:52:00,70.0,65.0,29.85,East,98,1.0,0.0,84,-99.99,,,-99.99,,2013-05-22 20:52:00,
2013-05-22 17:01:00,70.0,65.0,29.85,East,98,1.0,0.0,84,-99.99,,,-99.99,,2013-05-22 21:01:00,
2013-05-22 17:11:00,70.0,65.0,29.85,East,98,1.0,0.0,84,-99.99,,,-99.99,,2013-05-22 21:11:00,
2013-05-22 17:21:00,74.0,68.0,29.84,NW,321,0.0,0.0,83,-99.99,,,-99.99,,2013-05-22 21:21:00,
2013-05-22 17:32:00,74.0,68.0,29.84,NW,321,0.0,0.0,83,-99.99,,,-99.99,,2013-05-22 21:32:00,
2013-05-22 17:42:00,74.0,68.0,29.84,NW,321,0.0,0.0,83,-99.99,,,-99.99,,2013-05-22 21:42:00,
2013-05-22 17:53:00,74.0,66.0,29.84,NNE,26,0.0,0.0,75,-99.99,,,-99.99,,2013-05-22 21:53:00,
2013-05-22 18:03:00,72.0,67.0,29.83,SE,141,0.0,0.0,83,-99.99,,,-99.99,,2013-05-22 22:03:00,
2013-05-22 18:13:00,72.0,67.0,29.83,SE,141,0.0,0.0,83,-99.99,,,-99.99,,2013-05-22 22:13:00,
2013-05-22 18:22:00,71.0,67.0,29.84,East,98,1.0,0.0,87,-99.99,,,-99.99,,2013-05-22 22:22:00,
2013-05-22 18:33:00,71.0,67.0,29.84,East,98,1.0,0.0,87,-99.99,,,-99.99,,2013-05-22 22:33:00,
2013-05-22 18:42:00,68.0,65.0,29.87,NE,35,3.0,0.0,89,-99.99,,,-99.99,,2013-05-22 22:42:00,
2013-05-22 18:52:00,68.0,65.0,29.87,NE,35,3.0,0.0,89,-99.99,,,-99.99,,2013-05-22 22:52:00,
2013-05-22 19:02:00,68.0,65.0,29.87,NE,35,3.0,0.0,89,-99.99,,,-99.99,,2013-05-22 23:02:00,
2013-05-22 19:12:00,68.0,65.0,29.87,NE,35,3.0,0.0,89,-99.99,,,-99.99,,2013-05-22 23:12:00,
2013-05-22 19:21:00,66.0,63.0,29.86,NW,317,0.0,0.0,91,-99.99,,,-99.99,,2013-05-22 23:21:00,
2013-05-22 19:32:00,66.0,63.0,29.86,NW,317,0.0,0.0,91,-99.99,,,-99.99,,2013-05-22 23:32:00,
2013-05-22 19:42:00,66.0,63.0,29.86,NW,317,0.0,0.0,91,-99.99,,,-99.99,,2013-05-22 23:42:00,
2013-05-22 19:53:00,66.0,63.0,29.86,NW,317,0.0,0.0,91,-99.99,,,-99.99,,2013-05-22 23:53:00,
2013-05-22 20:01:00,66.0,65.0,29.87,NW,318,0.0,0.0,95,-99.99,,,-99.99,,2013-05-23 00:01:00,
2013-05-22 20:11:00,66.0,65.0,29.87,NW,318,0.0,0.0,95,-99.99,,,-99.99,,2013-05-23 00:11:00,
2013-05-22 20:22:00,66.0,65.0,29.88,NW,317,0.0,0.0,95,-99.99,,,-99.99,,2013-05-23 00:22:00,
2013-05-22 20:32:00,65.0,64.0,29.88,NW,318,0.0,0.0,95,-99.99,,,-99.99,,2013-05-23 00:32:00,
2013-05-22 20:42:00,65.0,64.0,29.88,NW,318,0.0,0.0,95,-99.99,,,-99.99,,2013-05-23 00:42:00,
2013-05-22 20:52:00,65.0,64.0,29.88,NW,318,0.0,0.0,95,-99.99,,,-99.99,,2013-05-23 00:52:00,
2013-05-22 21:01:00,65.0,64.0,29.88,NW,317,0.0,0.0,96,-99.99,,,-99.99,,2013-05-23 01:01:00,
2013-05-22 21:11:00,65.0,64.0,29.88,NW,317,0.0,0.0,96,-99.99,,,-99.99,,2013-05-23 01:11:00,
2013-05-22 21:22:00,65.0,64.0,29.88,NW,317,0.0,0.0,96,-99.99,,,-99.99,,2013-05-23 01:22:00,
2013-05-22 21:32:00,65.0,64.0,29.89,NW,318,0.0,0.0,97,-99.99,,,-99.99,,2013-05-23 01:32:00,
2013-05-22 21:42:00,65.0,64.0,29.91,NNE,29,2.0,0.0,97,-99.99,,,-99.99,,2013-05-23 01:42:00,
2013-05-22 21:52:00,65.0,64.0,29.91,NNE,29,2.0,0.0,97,-99.99,,,-99.99,,2013-05-23 01:52:00,
2013-05-22 22:02:00,65.0,64.0,29.91,NNE,29,2.0,0.0,97,-99.99,,,-99.99,,2013-05-23 02:02:00,
2013-05-22 22:11:00,65.0,64.0,29.91,NNE,29,2.0,0.0,97,-99.99,,,-99.99,,2013-05-23 02:11:00,
2013-05-22 22:21:00,65.0,64.0,29.89,NE,47,0.0,0.0,97,-99.99,,,-99.99,,2013-05-23 02:21:00,
2013-05-22 22:32:00,64.0,63.0,29.89,NE,47,0.0,0.0,97,-99.99,,,-99.99,,2013-05-23 02:32:00,
2013-05-22 22:42:00,64.0,63.0,29.89,NE,47,0.0,0.0,97,-99.99,,,-99.99,,2013-05-23 02:42:00,
2013-05-22 22:52:00,64.0,63.0,29.89,NE,47,0.0,0.0,97,-99.99,,,-99.99,,2013-05-23 02:52:00,
2013-05-22 23:02:00,65.0,64.0,29.90,NE,46,0.0,0.0,97,-99.99,,,-99.99,,2013-05-23 03:02:00,
2013-05-22 23:11:00,65.0,64.0,29.90,NE,46,0.0,0.0,97,-99.99,,,-99.99,,2013-05-23 03:11:00,
2013-05-22 23:22:00,64.0,63.0,29.90,NE,47,0.0,0.0,97,-99.99,,,-99.99,,2013-05-23 03:22:00,
2013-05-22 23:33:00,64.0,63.0,29.90,NE,47,0.0,0.0,98,-99.99,,,-99.99,,2013-05-23 03:33:00,
2013-05-22 23:43:00,64.0,63.0,29.90,NE,47,0.0,0.0,98,-99.99,,,-99.99,,2013-05-23 03:43:00,
2013-05-22 23:53:00,64.0,63.0,29.90,East,96,0.0,0.0,97,-99.99,,,-99.99,,2013-05-23 03:53:00,